Terminal Aerodrome Forecast
Issued by NWS

Home | Current Version | Previous Version | Text Only | Print | Product List | Glossary On
Versions: 1 2 3 4 5 6 7 8 9 10 11 12 13 14 15 16 17 18 19 20 21 22 23 24 25 26 27 28
000
FTAK31 PAFA 281138
TAFAGA
TAF
PAGA 281138Z 2812/2912 14004KT P6SM VCFG FEW025 SCT035 BKN100
     FM281500 18010KT 6SM -SHRA BKN035 OVC050
     FM290000 21008KT 6SM -SHRA BKN025 OVC035
     FM290300 24006KT 6SM -SHRA BR BKN025 OVC035=

USA.gov is the U.S. government's official web portal to all federal, state and local government web resources and services.